Casper, Wyoming Weather

Natrona County International Airport, Casper, WY: 5/23/2017 11:53
Visibility10 statute milessun with a few clouds
View 7-Day Forecast
Area Summary
Sky/CloudsFew at 5500ft
Weather [last 24 hours]None [rain began 12:09; rain began 17:07 ended 17:52; rain began 18:04; rain ended 20:29 ]
Pressure30.2 in.Hg (1023 hPa)
3-hour Pressure Tendency0.03543 in.Hg (1.2 hPa) Decreasing steadily or unsteadily
Dew Point34 °F (1.1 °C)
Relative Humidity40.4 %
Last 24-Hour Precip.0.25 in. (6.35 mm)
Reading TimePrecipitation
6-hr ending 5/22@23:530.11 in. (2.794 mm)
6-hr ending 5/22@17:530.15 in. (3.81 mm)
24-hr ending 5/23@05:530.26 in. (6.604 mm)
Temperature57.9 °F (14.4 °C)red thermometer
Reading TimeMinimum to Maximum Temperature
6-hr ending 5/23@11:5336 °F to 57.9 °F (2.2 °C to 14.4 °C)
6-hr ending 5/23@05:5336 °F to 39.9 °F (2.2 °C to 4.4 °C)
6-hr ending 5/22@23:5339 °F to 46 °F (3.9 °C to 7.8 °C)
6-hr ending 5/22@17:5337.9 °F to 48.9 °F (3.3 °C to 9.4 °C)
24-hr ending 5/23@00:5337 °F to 55.9 °F (2.8 °C to 13.3 °C)
Wind9.21 MPH (8 KT) green arrow pointing at 0 degrees
Wind FromNorth (010 Degrees)
Rolling 24-hr Peak Wind31.1 MPH (27 KT) on 5/22@20:11
Rolling 24-hr Peak Wind FromNorth/Northwest (340 Degrees)
Twilight Begins05:01Sunshine Yesterday
Sunrise05:35N/A
Sunset20:31
Twilight Ends21:05
METARKCPR 231753Z 01008KT 10SM FEW055 14/01 A3020 RMK AO2 SLP205 T01440011 10144 20022 57012